createdAt,value
2018-05-31T00:01:15.191Z,42.87
2018-05-31T00:03:46.007Z,42.96
2018-05-31T00:06:15.754Z,42.92
2018-05-31T00:08:44.750Z,42.78
2018-05-31T00:11:13.908Z,42.58
2018-05-31T00:13:42.891Z,42.72
2018-05-31T00:16:12.215Z,42.73
2018-05-31T00:18:42.940Z,42.75
2018-05-31T00:21:12.734Z,42.89
2018-05-31T00:23:41.754Z,42.82
2018-05-31T00:26:13.590Z,42.82
2018-05-31T00:28:42.630Z,42.68
2018-05-31T00:31:11.596Z,42.48
2018-05-31T00:33:42.544Z,42.44
2018-05-31T00:36:11.663Z,42.16
2018-05-31T00:38:40.558Z,42.17
2018-05-31T00:41:10.372Z,42.07
2018-05-31T00:43:39.365Z,42.11
2018-05-31T00:46:08.563Z,42.03
2018-05-31T00:48:40.185Z,42.19
2018-05-31T00:51:09.336Z,42.09
2018-05-31T00:53:38.593Z,42.09
2018-05-31T00:56:19.214Z,42.01
2018-05-31T00:58:48.177Z,42.03
2018-05-31T01:01:17.143Z,42.01
2018-05-31T01:03:53.073Z,42.06
2018-05-31T01:06:22.091Z,41.87
2018-05-31T01:08:52.023Z,41.49
2018-05-31T01:11:23.050Z,41.44
2018-05-31T01:13:52.143Z,41.34
2018-05-31T01:16:21.137Z,41.48
2018-05-31T01:18:55.010Z,41.51
2018-05-31T01:21:24.046Z,41.56
2018-05-31T01:23:52.935Z,42.29
2018-05-31T01:26:22.021Z,42.11
2018-05-31T01:28:51.956Z,41.59
2018-05-31T01:31:20.942Z,41.46
2018-05-31T01:33:51.060Z,41.28
2018-05-31T01:36:20.054Z,41.34
2018-05-31T01:38:49.151Z,41.31
2018-05-31T01:41:18.205Z,41.19
2018-05-31T01:43:47.346Z,41.10
2018-05-31T01:46:16.580Z,41.13
2018-05-31T01:48:45.539Z,41.23
2018-05-31T01:51:14.574Z,41.16
2018-05-31T01:53:43.730Z,40.94
2018-05-31T01:56:13.685Z,41.07
2018-05-31T01:58:42.539Z,41.11
2018-05-31T02:01:11.530Z,41.12
2018-05-31T02:06:14.440Z,40.99
2018-05-31T02:08:43.433Z,41.00
2018-05-31T02:11:13.350Z,40.90
2018-05-31T02:13:42.439Z,41.05
2018-05-31T02:16:11.340Z,40.70
2018-05-31T02:18:41.399Z,40.47
2018-05-31T02:21:10.348Z,40.63
2018-05-31T02:23:39.350Z,40.90
2018-05-31T02:26:09.212Z,40.91
2018-05-31T02:28:38.083Z,41.14
2018-05-31T02:31:07.118Z,40.82
2018-05-31T02:33:38.287Z,40.87
2018-05-31T02:36:07.150Z,40.73
2018-05-31T02:38:36.138Z,40.41
2018-05-31T02:41:05.984Z,40.19
2018-05-31T02:43:34.950Z,40.35
2018-05-31T02:46:04.080Z,40.17
2018-05-31T02:48:33.073Z,40.04
2018-05-31T02:51:02.068Z,39.85
2018-05-31T02:53:31.097Z,39.93
2018-05-31T02:56:00.981Z,39.75
2018-05-31T02:58:29.972Z,39.63
2018-05-31T03:00:58.963Z,39.30
2018-05-31T03:03:28.506Z,39.14
2018-05-31T03:05:57.460Z,38.88
2018-05-31T03:08:26.457Z,38.45
2018-05-31T03:10:56.377Z,36.65
2018-05-31T03:13:25.270Z,35.84
2018-05-31T03:15:54.260Z,34.56
2018-05-31T03:18:25.197Z,33.89
2018-05-31T03:20:54.196Z,32.98
2018-05-31T03:23:23.292Z,32.10
2018-05-31T03:25:54.025Z,31.21
2018-05-31T03:28:24.046Z,31.02
2018-05-31T03:30:52.915Z,30.95
2018-05-31T03:33:23.816Z,31.08
2018-05-31T03:35:52.695Z,30.63
2018-05-31T03:38:21.664Z,30.19
2018-05-31T03:40:51.781Z,30.46
2018-05-31T03:43:20.704Z,30.39
2018-05-31T03:45:49.673Z,29.77
2018-05-31T03:50:53.900Z,29.72
2018-05-31T03:53:22.794Z,29.23
2018-05-31T03:55:52.608Z,28.50
2018-05-31T03:58:22.112Z,28.55
2018-05-31T04:00:51.119Z,28.12
2018-05-31T04:03:20.207Z,28.22
2018-05-31T04:05:50.103Z,27.78
2018-05-31T04:08:19.858Z,27.62
2018-05-31T04:10:49.138Z,28.19
2018-05-31T04:13:20.058Z,28.05
2018-05-31T04:15:49.068Z,27.33
2018-05-31T04:18:18.056Z,27.27
2018-05-31T04:20:47.142Z,26.87
2018-05-31T04:23:16.249Z,26.89
2018-05-31T04:25:45.306Z,27.44
2018-05-31T04:28:15.292Z,27.44
2018-05-31T04:30:44.267Z,26.66
2018-05-31T04:33:13.491Z,26.02
2018-05-31T04:35:45.930Z,25.23
2018-05-31T04:38:14.936Z,26.33
2018-05-31T04:40:43.961Z,26.63
2018-05-31T04:43:12.913Z,26.28
2018-05-31T04:45:42.010Z,25.46
2018-05-31T04:48:11.111Z,24.95
2018-05-31T04:50:40.862Z,24.90
2018-05-31T04:53:09.805Z,24.72
2018-05-31T04:55:38.745Z,24.59
2018-05-31T04:58:08.608Z,24.09
2018-05-31T05:00:37.616Z,24.84
2018-05-31T05:03:06.607Z,25.18
2018-05-31T05:05:35.763Z,24.95
2018-05-31T05:08:04.844Z,25.25
2018-05-31T05:10:33.799Z,24.38
2018-05-31T05:13:04.723Z,24.24
2018-05-31T05:15:33.624Z,24.28
2018-05-31T05:18:02.719Z,25.64
2018-05-31T05:20:34.458Z,25.37
2018-05-31T05:23:03.355Z,25.07
2018-05-31T05:25:32.469Z,25.13
2018-05-31T05:28:02.118Z,24.66
2018-05-31T05:30:31.040Z,24.28
2018-05-31T05:33:00.084Z,24.43
2018-05-31T05:35:29.917Z,24.69
2018-05-31T05:37:58.919Z,24.14
2018-05-31T05:40:27.872Z,24.89
2018-05-31T05:42:57.822Z,24.61
2018-05-31T05:45:26.927Z,24.01
2018-05-31T05:47:55.877Z,23.88
2018-05-31T05:50:24.978Z,22.80
2018-05-31T05:52:53.967Z,23.56
2018-05-31T05:55:22.962Z,23.61
2018-05-31T05:57:51.948Z,23.70
2018-05-31T06:00:20.947Z,22.95
2018-05-31T06:02:50.038Z,22.72
2018-05-31T06:05:20.676Z,23.36
2018-05-31T06:07:49.677Z,22.81
2018-05-31T06:10:18.776Z,22.90
2018-05-31T06:12:48.582Z,21.90
2018-05-31T06:15:17.487Z,21.71
2018-05-31T06:17:46.468Z,21.58
2018-05-31T06:22:50.291Z,22.25
2018-05-31T06:25:19.287Z,21.59
2018-05-31T06:30:25.982Z,20.31
2018-05-31T06:32:55.079Z,20.96
2018-05-31T06:35:24.180Z,21.69
2018-05-31T06:37:56.077Z,20.55
2018-05-31T06:40:25.046Z,21.38
2018-05-31T06:42:54.978Z,20.28
2018-05-31T06:45:24.044Z,20.73
2018-05-31T06:47:52.945Z,20.24
2018-05-31T06:50:22.163Z,20.05
2018-05-31T06:52:52.153Z,19.94
2018-05-31T06:55:21.724Z,19.77
2018-05-31T06:57:50.861Z,20.27
2018-05-31T07:00:19.948Z,19.12
2018-05-31T07:02:48.913Z,19.67
2018-05-31T07:05:17.839Z,19.97
2018-05-31T07:07:48.511Z,19.88
2018-05-31T07:10:17.365Z,19.26
2018-05-31T07:12:46.256Z,19.36
2018-05-31T07:15:16.095Z,18.98
2018-05-31T07:17:45.188Z,19.44
2018-05-31T07:20:14.160Z,19.84
2018-05-31T07:22:44.001Z,19.08
2018-05-31T07:25:13.235Z,20.42
2018-05-31T07:27:42.170Z,19.03
2018-05-31T07:32:45.068Z,18.50
2018-05-31T07:35:14.373Z,19.73
2018-05-31T07:37:45.208Z,20.91
2018-05-31T07:40:14.315Z,21.50
2018-05-31T07:42:43.308Z,21.55
2018-05-31T07:45:12.289Z,22.25
2018-05-31T07:47:41.393Z,21.58
2018-05-31T07:50:10.397Z,22.26
2018-05-31T07:52:41.947Z,21.53
2018-05-31T07:55:11.146Z,21.59
2018-05-31T07:57:40.132Z,22.23
2018-05-31T08:00:09.983Z,22.57
2018-05-31T08:02:38.871Z,23.52
2018-05-31T08:05:07.842Z,24.80
2018-05-31T08:07:36.932Z,26.65
2018-05-31T08:10:06.021Z,26.83
2018-05-31T08:12:35.257Z,27.88
2018-05-31T08:15:06.881Z,29.33
2018-05-31T08:17:35.876Z,29.07
2018-05-31T08:20:04.870Z,30.80
2018-05-31T08:22:35.437Z,29.26
2018-05-31T08:25:04.701Z,30.66
2018-05-31T08:27:33.587Z,30.42
2018-05-31T08:30:03.449Z,27.93
2018-05-31T08:32:32.277Z,30.34
2018-05-31T08:35:01.186Z,29.66
2018-05-31T08:37:31.931Z,30.76
2018-05-31T08:40:00.907Z,30.15
2018-05-31T08:42:29.839Z,30.76
2018-05-31T08:44:59.828Z,31.71
2018-05-31T08:47:29.035Z,30.82
2018-05-31T08:49:58.030Z,31.39
2018-05-31T08:52:27.100Z,31.09
2018-05-31T08:54:56.905Z,31.43
2018-05-31T08:57:25.972Z,30.15
2018-05-31T08:59:55.840Z,31.90
2018-05-31T09:02:24.835Z,31.79
2018-05-31T09:04:53.846Z,30.91
2018-05-31T09:07:22.824Z,31.23
2018-05-31T09:09:51.818Z,30.87
2018-05-31T09:12:20.711Z,31.40
2018-05-31T09:14:49.710Z,30.21
2018-05-31T09:17:18.788Z,31.34
2018-05-31T09:19:47.694Z,31.75
2018-05-31T09:22:18.325Z,30.41
2018-05-31T09:24:48.349Z,30.72
2018-05-31T09:27:17.338Z,31.06
2018-05-31T09:29:46.434Z,30.58
2018-05-31T09:32:15.403Z,32.23
2018-05-31T09:34:44.322Z,37.01
2018-05-31T09:39:47.944Z,39.04
2018-05-31T09:42:16.806Z,38.18
2018-05-31T09:44:48.797Z,38.94
2018-05-31T09:47:17.691Z,39.01
2018-05-31T09:49:46.618Z,39.06
2018-05-31T09:54:49.796Z,40.24
2018-05-31T09:57:18.786Z,35.50
2018-05-31T09:59:49.046Z,36.20
2018-05-31T10:02:18.038Z,36.94
2018-05-31T10:04:48.024Z,37.14
2018-05-31T10:09:50.807Z,37.44
2018-05-31T10:12:20.007Z,40.99
2018-05-31T10:14:49.000Z,47.23
2018-05-31T10:17:18.426Z,47.27
2018-05-31T10:19:47.316Z,44.19
2018-05-31T10:22:17.431Z,44.86
2018-05-31T10:24:46.429Z,43.64
2018-05-31T10:27:15.421Z,41.87
2018-05-31T10:29:45.474Z,38.90
2018-05-31T10:32:14.373Z,38.39
2018-05-31T10:34:43.530Z,40.27
2018-05-31T10:37:12.529Z,39.93
2018-05-31T10:39:41.605Z,41.16
2018-05-31T10:42:10.514Z,44.31
2018-05-31T10:44:39.605Z,43.29
2018-05-31T10:47:09.525Z,41.41
2018-05-31T10:49:38.519Z,41.59
2018-05-31T10:54:41.728Z,39.50
2018-05-31T10:57:11.071Z,40.46
2018-05-31T10:59:40.885Z,42.24
2018-05-31T11:02:09.840Z,44.19
2018-05-31T11:04:38.833Z,43.73
2018-05-31T11:07:07.827Z,45.04
2018-05-31T11:09:36.823Z,43.56
2018-05-31T11:12:05.743Z,41.85
2018-05-31T11:14:34.963Z,42.65
2018-05-31T11:17:03.900Z,42.10
2018-05-31T11:19:32.888Z,41.39
2018-05-31T11:22:03.735Z,42.35
2018-05-31T11:24:32.935Z,42.17
2018-05-31T11:27:02.036Z,42.33
2018-05-31T11:29:32.054Z,43.19
2018-05-31T11:32:00.973Z,43.74
2018-05-31T11:34:29.886Z,42.39
2018-05-31T11:36:59.755Z,41.12
2018-05-31T11:39:29.909Z,43.62
2018-05-31T11:41:58.766Z,41.90
2018-05-31T11:44:28.579Z,42.98
2018-05-31T11:46:58.697Z,44.48
2018-05-31T11:49:27.793Z,44.89
2018-05-31T11:51:57.808Z,46.25
2018-05-31T11:54:26.808Z,45.90
2018-05-31T11:56:55.700Z,46.58
2018-05-31T11:59:24.795Z,47.38
2018-05-31T12:01:54.548Z,47.90
2018-05-31T12:04:23.603Z,49.15
2018-05-31T12:06:52.578Z,50.10
2018-05-31T12:09:21.594Z,50.12
2018-05-31T12:11:50.691Z,51.19
2018-05-31T12:14:19.790Z,51.55
2018-05-31T12:16:48.829Z,53.22
2018-05-31T12:19:17.711Z,53.21
2018-05-31T12:21:46.665Z,52.21
2018-05-31T12:24:15.696Z,51.57
2018-05-31T12:26:45.471Z,51.90
2018-05-31T12:29:15.388Z,52.17
2018-05-31T12:31:44.487Z,52.64
2018-05-31T12:34:13.889Z,51.33
2018-05-31T12:36:42.809Z,51.69
2018-05-31T12:39:11.781Z,50.12
2018-05-31T12:41:40.976Z,51.08
2018-05-31T12:46:45.801Z,51.94
2018-05-31T12:49:14.720Z,52.87
2018-05-31T12:51:49.858Z,52.01
2018-05-31T12:54:18.820Z,52.74
2018-05-31T12:56:47.852Z,52.52
2018-05-31T12:59:17.716Z,50.72
2018-05-31T13:01:46.958Z,51.97
2018-05-31T13:04:15.851Z,52.95
2018-05-31T13:06:44.839Z,51.63
2018-05-31T13:09:13.939Z,49.14
2018-05-31T13:11:42.767Z,47.64
2018-05-31T13:14:12.663Z,44.72
2018-05-31T13:16:41.642Z,43.22
2018-05-31T13:19:10.635Z,41.46
2018-05-31T13:21:40.547Z,42.62
2018-05-31T13:24:09.442Z,43.21
2018-05-31T13:26:38.432Z,44.04
2018-05-31T13:29:07.432Z,45.91
2018-05-31T13:31:36.420Z,45.57
2018-05-31T13:34:05.519Z,46.73
2018-05-31T13:36:34.614Z,43.61
2018-05-31T13:39:03.749Z,47.27
2018-05-31T13:41:32.812Z,49.41
2018-05-31T13:44:02.620Z,48.83
2018-05-31T13:46:31.824Z,47.51
2018-05-31T13:49:00.703Z,46.31
2018-05-31T13:51:29.810Z,50.17
2018-05-31T13:53:59.116Z,51.60
2018-05-31T13:56:27.965Z,50.51
2018-05-31T13:58:58.206Z,51.92
2018-05-31T14:01:27.121Z,46.67
2018-05-31T14:03:56.241Z,47.43
2018-05-31T14:06:25.364Z,47.23
2018-05-31T14:08:54.249Z,48.32
2018-05-31T14:11:23.197Z,44.68
2018-05-31T14:13:52.396Z,44.20
2018-05-31T14:16:21.298Z,44.31
2018-05-31T14:18:50.492Z,42.69
2018-05-31T14:21:19.675Z,43.97
2018-05-31T14:23:48.685Z,45.12
2018-05-31T14:26:17.876Z,46.82
2018-05-31T14:33:57.460Z,49.01
2018-05-31T14:36:26.499Z,50.08
2018-05-31T14:41:44.327Z,46.46
2018-05-31T14:44:14.315Z,52.34
2018-05-31T14:46:43.319Z,53.03
2018-05-31T14:49:12.379Z,51.08
2018-05-31T14:51:41.557Z,50.45
2018-05-31T14:54:10.819Z,51.26
2018-05-31T14:56:39.711Z,52.62
2018-05-31T14:59:09.693Z,51.22
2018-05-31T15:01:39.593Z,54.30
2018-05-31T15:04:08.665Z,50.93
2018-05-31T15:06:38.633Z,48.79
2018-05-31T15:09:07.646Z,55.02
2018-05-31T15:11:37.565Z,55.87
2018-05-31T15:14:07.828Z,56.92
2018-05-31T15:16:36.885Z,58.76
2018-05-31T15:19:05.917Z,58.31
2018-05-31T15:21:35.022Z,57.71
2018-05-31T15:24:04.412Z,58.22
2018-05-31T15:26:33.407Z,56.98
2018-05-31T15:29:02.411Z,56.00
2018-05-31T15:31:31.501Z,55.40
2018-05-31T15:34:00.452Z,54.51
2018-05-31T15:39:04.136Z,55.88
2018-05-31T15:41:33.178Z,53.52
2018-05-31T15:44:02.988Z,52.42
2018-05-31T15:46:31.878Z,51.65
2018-05-31T15:49:00.843Z,52.02
2018-05-31T15:51:29.973Z,51.04
2018-05-31T15:53:59.120Z,51.28
2018-05-31T15:56:28.070Z,51.06
2018-05-31T15:58:58.134Z,49.99
2018-05-31T16:01:27.332Z,49.11
2018-05-31T16:03:57.090Z,49.97
2018-05-31T16:06:26.187Z,50.60
2018-05-31T16:08:56.220Z,51.12
2018-05-31T16:11:25.160Z,51.35
2018-05-31T16:13:54.141Z,51.00
2018-05-31T16:16:22.931Z,52.20
2018-05-31T16:18:51.976Z,52.17
2018-05-31T16:21:22.859Z,52.92
2018-05-31T16:23:52.019Z,52.10
2018-05-31T16:26:21.038Z,51.86
2018-05-31T16:28:51.230Z,51.88
2018-05-31T16:31:20.330Z,51.66
2018-05-31T16:33:49.484Z,50.77
2018-05-31T16:36:20.316Z,49.98
2018-05-31T16:38:49.469Z,51.21
2018-05-31T16:41:18.607Z,50.73
2018-05-31T16:43:47.735Z,52.11
2018-05-31T16:46:16.647Z,52.07
2018-05-31T16:48:45.888Z,52.46
2018-05-31T16:51:15.106Z,54.13
2018-05-31T16:53:44.088Z,54.47
2018-05-31T16:56:13.187Z,54.67
2018-05-31T16:58:43.955Z,54.55
2018-05-31T17:01:13.074Z,54.68
2018-05-31T17:03:42.103Z,55.46
2018-05-31T17:06:11.061Z,55.77
2018-05-31T17:08:40.004Z,56.42
2018-05-31T17:11:08.987Z,56.20
2018-05-31T17:13:39.229Z,56.13
2018-05-31T17:16:08.435Z,54.91
2018-05-31T17:18:37.466Z,55.19
2018-05-31T17:21:07.316Z,56.09
2018-05-31T17:23:36.373Z,54.50
2018-05-31T17:26:05.736Z,52.24
2018-05-31T17:28:39.073Z,51.62
2018-05-31T17:31:08.633Z,50.88
2018-05-31T17:33:38.033Z,51.10
2018-05-31T17:36:07.291Z,51.54
2018-05-31T17:38:37.041Z,50.71
2018-05-31T17:41:06.145Z,50.96
2018-05-31T17:43:35.306Z,51.23
2018-05-31T17:46:04.491Z,52.20
2018-05-31T17:48:33.591Z,53.04
2018-05-31T17:51:03.491Z,51.41
2018-05-31T17:53:32.602Z,49.31
2018-05-31T17:56:01.644Z,49.57
2018-05-31T17:58:30.642Z,50.00
2018-05-31T18:01:01.379Z,49.81
2018-05-31T18:03:30.320Z,49.58
2018-05-31T18:06:00.436Z,49.57
2018-05-31T18:08:30.505Z,49.46
2018-05-31T18:10:59.555Z,49.74
2018-05-31T18:13:28.546Z,50.06
2018-05-31T18:15:57.630Z,50.65
2018-05-31T18:18:26.695Z,50.24
2018-05-31T18:20:58.043Z,50.94
2018-05-31T18:23:27.325Z,51.98
2018-05-31T18:25:56.503Z,52.80
2018-05-31T18:28:28.138Z,51.83
2018-05-31T18:30:57.247Z,51.84
2018-05-31T18:33:27.429Z,51.93
2018-05-31T18:35:56.606Z,51.89
2018-05-31T18:38:25.612Z,51.91
2018-05-31T18:40:54.759Z,51.85
2018-05-31T18:43:27.643Z,51.52
2018-05-31T18:45:56.628Z,51.55
2018-05-31T18:48:25.897Z,51.86
2018-05-31T18:50:57.029Z,51.75
2018-05-31T18:53:26.533Z,51.32
2018-05-31T18:55:55.645Z,51.24
2018-05-31T18:58:27.957Z,51.52
2018-05-31T19:00:57.205Z,51.18
2018-05-31T19:03:26.240Z,50.93
2018-05-31T19:05:58.200Z,50.77
2018-05-31T19:08:27.510Z,50.41
2018-05-31T19:10:56.714Z,50.64
2018-05-31T19:16:05.147Z,51.28
2018-05-31T19:18:40.801Z,51.47
2018-05-31T19:21:10.052Z,50.17
2018-05-31T19:23:39.053Z,50.67
2018-05-31T19:28:43.466Z,51.04
2018-05-31T19:31:12.489Z,50.19
2018-05-31T19:33:41.645Z,49.72
2018-05-31T19:36:16.049Z,49.56
2018-05-31T19:38:45.164Z,49.07
2018-05-31T19:41:15.211Z,49.53
2018-05-31T19:43:50.092Z,49.35
2018-05-31T19:46:20.036Z,48.96
2018-05-31T19:48:49.526Z,49.03
2018-05-31T19:51:26.315Z,48.90
2018-05-31T19:53:55.387Z,48.44
2018-05-31T19:56:24.589Z,47.97
2018-05-31T19:59:01.269Z,47.62
2018-05-31T20:01:35.971Z,47.45
2018-05-31T20:04:05.092Z,47.52
2018-05-31T20:06:34.290Z,47.99
2018-05-31T20:09:04.310Z,47.97
2018-05-31T20:11:34.261Z,48.09
2018-05-31T20:14:03.198Z,48.20
2018-05-31T20:16:32.212Z,48.29
2018-05-31T20:19:02.770Z,48.33
2018-05-31T20:21:31.776Z,48.72
2018-05-31T20:24:00.774Z,48.78
2018-05-31T20:26:30.615Z,47.95
2018-05-31T20:28:59.842Z,47.28
2018-05-31T20:31:29.066Z,46.80
2018-05-31T20:33:58.220Z,46.36
2018-05-31T20:36:27.338Z,45.85
2018-05-31T20:38:56.332Z,45.25
2018-05-31T20:41:25.193Z,45.09
2018-05-31T20:43:54.128Z,44.98
2018-05-31T20:46:23.049Z,45.29
2018-05-31T20:51:26.271Z,44.40
2018-05-31T20:53:55.231Z,44.60
2018-05-31T20:56:24.102Z,44.55
2018-05-31T20:58:53.065Z,44.55
2018-05-31T21:01:22.088Z,44.32
2018-05-31T21:03:51.855Z,44.07
2018-05-31T21:06:20.897Z,43.75
2018-05-31T21:08:49.874Z,43.72
2018-05-31T21:11:21.962Z,43.46
2018-05-31T21:13:50.959Z,43.06
2018-05-31T21:16:19.848Z,43.51
2018-05-31T21:18:49.763Z,42.93
2018-05-31T21:21:18.656Z,42.79
2018-05-31T21:23:47.645Z,42.96
2018-05-31T21:26:17.615Z,42.98
2018-05-31T21:28:46.551Z,43.00
2018-05-31T21:31:18.217Z,42.85
2018-05-31T21:33:47.312Z,42.86
2018-05-31T21:36:16.059Z,43.08
2018-05-31T21:38:44.989Z,42.74
2018-05-31T21:41:20.546Z,42.72
2018-05-31T21:43:49.534Z,42.31
2018-05-31T21:46:18.563Z,42.29
2018-05-31T21:48:49.469Z,44.68
2018-05-31T21:51:18.399Z,45.77
2018-05-31T21:53:47.337Z,45.06
2018-05-31T21:56:17.358Z,45.36
2018-05-31T21:58:46.208Z,46.19
2018-05-31T22:01:15.256Z,48.28
2018-05-31T22:03:45.174Z,49.66
2018-05-31T22:06:14.073Z,50.03
2018-05-31T22:08:42.958Z,50.02
2018-05-31T22:11:14.002Z,49.64
2018-05-31T22:13:42.887Z,49.68
2018-05-31T22:16:11.991Z,48.01
2018-05-31T22:18:41.745Z,47.18
2018-05-31T22:21:10.740Z,46.29
2018-05-31T22:23:39.924Z,45.07
2018-05-31T22:26:08.996Z,44.51
2018-05-31T22:28:38.493Z,44.56
2018-05-31T22:31:07.493Z,44.89
2018-05-31T22:36:11.513Z,45.39
2018-05-31T22:38:40.408Z,45.34
2018-05-31T22:41:09.505Z,45.16
2018-05-31T22:43:38.500Z,45.05
2018-05-31T22:46:07.289Z,44.90
2018-05-31T22:48:36.325Z,44.64
2018-05-31T22:51:08.350Z,44.48
2018-05-31T22:53:37.245Z,44.42
2018-05-31T22:56:06.377Z,44.38
2018-05-31T22:58:35.436Z,44.37
2018-05-31T23:01:04.338Z,44.54
2018-05-31T23:03:33.465Z,44.42
2018-05-31T23:06:02.370Z,44.28
2018-05-31T23:08:37.559Z,43.92
2018-05-31T23:11:08.288Z,43.67
2018-05-31T23:13:37.590Z,43.72
2018-05-31T23:16:06.616Z,43.83
2018-05-31T23:18:35.582Z,43.95
2018-05-31T23:21:04.509Z,44.19
2018-05-31T23:23:33.471Z,44.27
2018-05-31T23:26:03.320Z,44.38
2018-05-31T23:28:32.277Z,44.31
2018-05-31T23:31:01.352Z,44.27
2018-05-31T23:33:32.571Z,44.45
2018-05-31T23:36:01.721Z,44.49
2018-05-31T23:38:30.675Z,44.39
2018-05-31T23:40:59.629Z,44.43
2018-05-31T23:43:28.642Z,44.33
2018-05-31T23:45:57.796Z,44.45
2018-05-31T23:48:27.102Z,44.44
2018-05-31T23:50:56.093Z,44.47
2018-05-31T23:53:25.291Z,44.46
2018-05-31T23:55:54.365Z,44.49
2018-05-31T23:58:23.273Z,44.43
